sensor_id;sensor_type;location;lat;lon;timestamp;temperature;humidity
24664;DHT22;12791;50.992;13.788;2022-12-24T04:01:36;10.60;99.90
24664;DHT22;12791;50.992;13.788;2022-12-24T04:04:03;10.40;99.90
24664;DHT22;12791;50.992;13.788;2022-12-24T04:06:30;10.40;99.90
24664;DHT22;12791;50.992;13.788;2022-12-24T04:08:56;10.40;99.90
24664;DHT22;12791;50.992;13.788;2022-12-24T04:11:26;10.50;99.90
24664;DHT22;12791;50.992;13.788;2022-12-24T04:14:02;10.50;99.90
24664;DHT22;12791;50.992;13.788;2022-12-24T04:16:29;10.40;99.90
24664;DHT22;12791;50.992;13.788;2022-12-24T04:18:57;10.50;99.90
24664;DHT22;12791;50.992;13.788;2022-12-24T04:21:24;10.50;99.90
24664;DHT22;12791;50.992;13.788;2022-12-24T04:23:51;10.50;99.90
24664;DHT22;12791;50.992;13.788;2022-12-24T04:26:19;10.50;99.90
24664;DHT22;12791;50.992;13.788;2022-12-24T04:28:46;10.50;99.90
24664;DHT22;12791;50.992;13.788;2022-12-24T04:31:15;10.50;99.90
24664;DHT22;12791;50.992;13.788;2022-12-24T04:33:44;10.60;99.90
24664;DHT22;12791;50.992;13.788;2022-12-24T04:36:15;10.60;99.90
24664;DHT22;12791;50.992;13.788;2022-12-24T04:38:43;10.60;99.90
24664;DHT22;12791;50.992;13.788;2022-12-24T04:41:12;10.70;99.90
24664;DHT22;12791;50.992;13.788;2022-12-24T04:43:40;10.80;99.90
24664;DHT22;12791;50.992;13.788;2022-12-24T04:46:08;10.60;99.90
24664;DHT22;12791;50.992;13.788;2022-12-24T04:48:36;10.60;99.90
24664;DHT22;12791;50.992;13.788;2022-12-24T04:51:04;10.60;99.90
24664;DHT22;12791;50.992;13.788;2022-12-24T04:53:33;10.60;99.90
24664;DHT22;12791;50.992;13.788;2022-12-24T04:56:01;10.70;99.90
24664;DHT22;12791;50.992;13.788;2022-12-24T04:58:28;10.70;99.90
24664;DHT22;12791;50.992;13.788;2022-12-24T05:00:55;10.60;99.90
24664;DHT22;12791;50.992;13.788;2022-12-24T05:03:22;10.70;99.90
24664;DHT22;12791;50.992;13.788;2022-12-24T05:05:49;10.60;99.90
24664;DHT22;12791;50.992;13.788;2022-12-24T05:08:16;10.60;99.90
24664;DHT22;12791;50.992;13.788;2022-12-24T05:10:54;10.60;99.90
24664;DHT22;12791;50.992;13.788;2022-12-24T05:13:21;10.70;99.90
24664;DHT22;12791;50.992;13.788;2022-12-24T05:15:48;10.60;99.90
24664;DHT22;12791;50.992;13.788;2022-12-24T05:18:15;10.50;99.90
24664;DHT22;12791;50.992;13.788;2022-12-24T05:20:42;10.50;99.90
24664;DHT22;12791;50.992;13.788;2022-12-24T05:23:14;10.50;99.90
24664;DHT22;12791;50.992;13.788;2022-12-24T05:26:00;10.50;99.90
24664;DHT22;12791;50.992;13.788;2022-12-24T05:28:45;10.50;99.90
24664;DHT22;12791;50.992;13.788;2022-12-24T05:31:12;10.50;99.90
24664;DHT22;12791;50.992;13.788;2022-12-24T05:33:39;10.40;99.90
24664;DHT22;12791;50.992;13.788;2022-12-24T05:36:06;10.40;99.90
24664;DHT22;12791;50.992;13.788;2022-12-24T05:38:34;10.40;99.90
24664;DHT22;12791;50.992;13.788;2022-12-24T05:41:02;10.40;99.90
24664;DHT22;12791;50.992;13.788;2022-12-24T05:43:29;10.30;99.90
24664;DHT22;12791;50.992;13.788;2022-12-24T05:45:57;10.30;99.90
24664;DHT22;12791;50.992;13.788;2022-12-24T05:48:25;10.30;99.90
24664;DHT22;12791;50.992;13.788;2022-12-24T05:50:52;10.30;99.90
24664;DHT22;12791;50.992;13.788;2022-12-24T05:53:19;10.30;99.90
24664;DHT22;12791;50.992;13.788;2022-12-24T05:55:46;10.30;99.90
24664;DHT22;12791;50.992;13.788;2022-12-24T05:58:15;10.30;99.90
24664;DHT22;12791;50.992;13.788;2022-12-24T06:00:42;10.30;99.90
24664;DHT22;12791;50.992;13.788;2022-12-24T06:03:09;10.20;99.90
24664;DHT22;12791;50.992;13.788;2022-12-24T06:05:36;10.30;99.90
24664;DHT22;12791;50.992;13.788;2022-12-24T06:08:05;10.30;99.90
24664;DHT22;12791;50.992;13.788;2022-12-24T06:10:35;10.30;99.90
24664;DHT22;12791;50.992;13.788;2022-12-24T06:13:02;10.20;99.90
24664;DHT22;12791;50.992;13.788;2022-12-24T06:15:30;10.20;99.90
24664;DHT22;12791;50.992;13.788;2022-12-24T06:17:57;10.20;99.90
24664;DHT22;12791;50.992;13.788;2022-12-24T06:20:25;10.10;99.90
24664;DHT22;12791;50.992;13.788;2022-12-24T06:22:52;10.10;99.90
24664;DHT22;12791;50.992;13.788;2022-12-24T06:25:19;10.10;99.90
24664;DHT22;12791;50.992;13.788;2022-12-24T06:27:46;10.00;99.90
24664;DHT22;12791;50.992;13.788;2022-12-24T06:30:13;10.10;99.90
24664;DHT22;12791;50.992;13.788;2022-12-24T06:32:41;10.00;99.90
24664;DHT22;12791;50.992;13.788;2022-12-24T06:35:08;10.00;99.90
24664;DHT22;12791;50.992;13.788;2022-12-24T06:37:37;10.00;99.90
24664;DHT22;12791;50.992;13.788;2022-12-24T06:40:08;10.00;99.90
24664;DHT22;12791;50.992;13.788;2022-12-24T06:42:35;9.90;99.90
24664;DHT22;12791;50.992;13.788;2022-12-24T06:45:03;9.90;99.90
24664;DHT22;12791;50.992;13.788;2022-12-24T06:47:30;10.00;99.90
24664;DHT22;12791;50.992;13.788;2022-12-24T06:49:58;10.00;99.90
24664;DHT22;12791;50.992;13.788;2022-12-24T06:52:25;10.00;99.90
24664;DHT22;12791;50.992;13.788;2022-12-24T06:54:52;10.00;99.90
24664;DHT22;12791;50.992;13.788;2022-12-24T06:57:19;9.90;99.90
24664;DHT22;12791;50.992;13.788;2022-12-24T06:59:46;10.00;99.90
24664;DHT22;12791;50.992;13.788;2022-12-24T07:02:13;10.20;99.90
24664;DHT22;12791;50.992;13.788;2022-12-24T07:04:40;10.00;99.90
24664;DHT22;12791;50.992;13.788;2022-12-24T07:07:08;10.00;99.90
24664;DHT22;12791;50.992;13.788;2022-12-24T07:09:35;10.10;99.90
24664;DHT22;12791;50.992;13.788;2022-12-24T07:12:03;10.10;99.90
24664;DHT22;12791;50.992;13.788;2022-12-24T07:14:30;10.10;99.90
24664;DHT22;12791;50.992;13.788;2022-12-24T07:16:57;10.10;99.90
24664;DHT22;12791;50.992;13.788;2022-12-24T07:19:24;10.10;99.90
24664;DHT22;12791;50.992;13.788;2022-12-24T07:21:51;10.10;99.90
24664;DHT22;12791;50.992;13.788;2022-12-24T07:24:20;10.20;99.90
24664;DHT22;12791;50.992;13.788;2022-12-24T07:26:48;10.20;99.90
24664;DHT22;12791;50.992;13.788;2022-12-24T07:29:21;10.20;99.90
24664;DHT22;12791;50.992;13.788;2022-12-24T07:31:48;10.20;99.90
24664;DHT22;12791;50.992;13.788;2022-12-24T07:34:15;10.20;99.90
24664;DHT22;12791;50.992;13.788;2022-12-24T07:36:42;10.20;99.90
24664;DHT22;12791;50.992;13.788;2022-12-24T07:39:09;10.20;99.90
24664;DHT22;12791;50.992;13.788;2022-12-24T07:41:38;10.20;99.90
24664;DHT22;12791;50.992;13.788;2022-12-24T07:44:10;10.20;99.90
24664;DHT22;12791;50.992;13.788;2022-12-24T07:46:38;10.40;99.90
24664;DHT22;12791;50.992;13.788;2022-12-24T07:49:05;10.20;99.90
24664;DHT22;12791;50.992;13.788;2022-12-24T07:51:32;10.20;99.90
24664;DHT22;12791;50.992;13.788;2022-12-24T07:54:00;10.20;99.90
24664;DHT22;12791;50.992;13.788;2022-12-24T07:56:27;10.20;99.90
24664;DHT22;12791;50.992;13.788;2022-12-24T07:58:55;10.30;99.90
24664;DHT22;12791;50.992;13.788;2022-12-24T08:01:22;10.20;99.90
24664;DHT22;12791;50.992;13.788;2022-12-24T08:03:49;10.20;99.90
24664;DHT22;12791;50.992;13.788;2022-12-24T08:06:18;10.20;99.90
24664;DHT22;12791;50.992;13.788;2022-12-24T08:08:45;10.20;99.90
24664;DHT22;12791;50.992;13.788;2022-12-24T08:11:12;10.20;99.90
24664;DHT22;12791;50.992;13.788;2022-12-24T08:13:40;10.20;99.90
24664;DHT22;12791;50.992;13.788;2022-12-24T08:16:08;10.20;99.90
24664;DHT22;12791;50.992;13.788;2022-12-24T08:18:35;10.20;99.90
24664;DHT22;12791;50.992;13.788;2022-12-24T08:21:05;10.20;99.90
24664;DHT22;12791;50.992;13.788;2022-12-24T08:23:32;10.30;99.90
24664;DHT22;12791;50.992;13.788;2022-12-24T08:25:59;10.20;99.90
24664;DHT22;12791;50.992;13.788;2022-12-24T08:28:26;10.20;99.90
24664;DHT22;12791;50.992;13.788;2022-12-24T08:30:54;10.20;99.90
24664;DHT22;12791;50.992;13.788;2022-12-24T08:33:25;10.30;99.90
24664;DHT22;12791;50.992;13.788;2022-12-24T08:36:00;10.20;99.90
24664;DHT22;12791;50.992;13.788;2022-12-24T08:38:28;10.40;99.90
24664;DHT22;12791;50.992;13.788;2022-12-24T08:40:55;10.20;99.90
24664;DHT22;12791;50.992;13.788;2022-12-24T08:43:23;10.20;99.90
24664;DHT22;12791;50.992;13.788;2022-12-24T08:45:52;10.20;99.90
24664;DHT22;12791;50.992;13.788;2022-12-24T08:48:19;10.30;99.90
24664;DHT22;12791;50.992;13.788;2022-12-24T08:50:48;10.20;99.90
24664;DHT22;12791;50.992;13.788;2022-12-24T08:53:15;10.30;99.90
24664;DHT22;12791;50.992;13.788;2022-12-24T08:55:42;10.20;99.90
24664;DHT22;12791;50.992;13.788;2022-12-24T08:58:09;10.30;99.90
24664;DHT22;12791;50.992;13.788;2022-12-24T09:00:36;10.40;99.90
24664;DHT22;12791;50.992;13.788;2022-12-24T09:03:06;10.30;99.90
24664;DHT22;12791;50.992;13.788;2022-12-24T09:05:33;10.30;99.90
24664;DHT22;12791;50.992;13.788;2022-12-24T09:08:02;10.30;99.90
24664;DHT22;12791;50.992;13.788;2022-12-24T09:10:29;10.30;99.90
24664;DHT22;12791;50.992;13.788;2022-12-24T09:13:00;10.40;99.90
24664;DHT22;12791;50.992;13.788;2022-12-24T09:15:27;10.40;99.90
24664;DHT22;12791;50.992;13.788;2022-12-24T09:17:54;10.40;99.90
24664;DHT22;12791;50.992;13.788;2022-12-24T09:20:21;10.40;99.90
24664;DHT22;12791;50.992;13.788;2022-12-24T09:22:48;10.50;99.90
24664;DHT22;12791;50.992;13.788;2022-12-24T09:25:17;10.50;99.90
24664;DHT22;12791;50.992;13.788;2022-12-24T09:27:45;10.60;99.90
24664;DHT22;12791;50.992;13.788;2022-12-24T09:30:14;10.60;99.90
24664;DHT22;12791;50.992;13.788;2022-12-24T09:32:43;10.60;99.90
24664;DHT22;12791;50.992;13.788;2022-12-24T09:35:10;10.60;99.90
24664;DHT22;12791;50.992;13.788;2022-12-24T09:37:37;10.70;99.90
24664;DHT22;12791;50.992;13.788;2022-12-24T09:40:05;10.70;99.90
24664;DHT22;12791;50.992;13.788;2022-12-24T09:42:54;10.80;99.90
24664;DHT22;12791;50.992;13.788;2022-12-24T09:45:26;10.80;99.90
24664;DHT22;12791;50.992;13.788;2022-12-24T09:47:56;10.90;99.90
24664;DHT22;12791;50.992;13.788;2022-12-24T09:50:36;10.90;99.90
24664;DHT22;12791;50.992;13.788;2022-12-24T09:53:13;10.90;99.90
24664;DHT22;12791;50.992;13.788;2022-12-24T09:55:47;10.90;99.90
24664;DHT22;12791;50.992;13.788;2022-12-24T09:58:20;11.00;99.90
24664;DHT22;12791;50.992;13.788;2022-12-24T10:00:58;11.00;99.90
24664;DHT22;12791;50.992;13.788;2022-12-24T10:03:27;11.00;99.90
24664;DHT22;12791;50.992;13.788;2022-12-24T10:06:10;11.10;99.90
24664;DHT22;12791;50.992;13.788;2022-12-24T10:08:52;11.00;99.90
24664;DHT22;12791;50.992;13.788;2022-12-24T10:11:27;11.00;99.90
24664;DHT22;12791;50.992;13.788;2022-12-24T10:14:17;11.10;99.90
24664;DHT22;12791;50.992;13.788;2022-12-24T10:16:55;11.00;99.90
24664;DHT22;12791;50.992;13.788;2022-12-24T10:19:37;11.00;99.90
24664;DHT22;12791;50.992;13.788;2022-12-24T10:22:14;11.00;99.90
24664;DHT22;12791;50.992;13.788;2022-12-24T10:25:05;11.00;99.90
24664;DHT22;12791;50.992;13.788;2022-12-24T10:27:39;11.00;99.90
24664;DHT22;12791;50.992;13.788;2022-12-24T10:30:14;11.00;99.90
24664;DHT22;12791;50.992;13.788;2022-12-24T10:33:25;11.00;99.90
24664;DHT22;12791;50.992;13.788;2022-12-24T10:36:22;11.00;99.90
24664;DHT22;12791;50.992;13.788;2022-12-24T10:38:51;11.00;99.90
24664;DHT22;12791;50.992;13.788;2022-12-24T10:41:29;11.00;99.90
24664;DHT22;12791;50.992;13.788;2022-12-24T10:44:00;11.00;99.90
24664;DHT22;12791;50.992;13.788;2022-12-24T10:46:33;11.00;99.90
24664;DHT22;12791;50.992;13.788;2022-12-24T10:49:04;11.00;99.90
24664;DHT22;12791;50.992;13.788;2022-12-24T10:51:46;11.00;99.90
24664;DHT22;12791;50.992;13.788;2022-12-24T10:54:26;11.00;99.90
24664;DHT22;12791;50.992;13.788;2022-12-24T10:56:55;11.00;99.90
24664;DHT22;12791;50.992;13.788;2022-12-24T10:59:26;11.00;99.90
24664;DHT22;12791;50.992;13.788;2022-12-24T11:01:56;10.90;99.90
24664;DHT22;12791;50.992;13.788;2022-12-24T11:04:25;10.90;99.90
24664;DHT22;12791;50.992;13.788;2022-12-24T11:06:55;10.90;99.90
24664;DHT22;12791;50.992;13.788;2022-12-24T11:09:28;10.90;99.90
24664;DHT22;12791;50.992;13.788;2022-12-24T11:12:03;11.00;99.90
24664;DHT22;12791;50.992;13.788;2022-12-24T11:14:33;10.90;99.90
24664;DHT22;12791;50.992;13.788;2022-12-24T11:17:10;10.80;99.90
24664;DHT22;12791;50.992;13.788;2022-12-24T11:19:48;10.90;99.90
24664;DHT22;12791;50.992;13.788;2022-12-24T11:22:22;10.90;99.90
24664;DHT22;12791;50.992;13.788;2022-12-24T11:24:57;10.90;99.90
24664;DHT22;12791;50.992;13.788;2022-12-24T11:27:37;10.90;99.90
24664;DHT22;12791;50.992;13.788;2022-12-24T11:30:25;10.90;99.90
24664;DHT22;12791;50.992;13.788;2022-12-24T11:33:18;10.90;99.90
24664;DHT22;12791;50.992;13.788;2022-12-24T11:35:50;10.90;99.90
24664;DHT22;12791;50.992;13.788;2022-12-24T11:38:21;10.90;99.90
24664;DHT22;12791;50.992;13.788;2022-12-24T11:40:56;10.90;99.90
24664;DHT22;12791;50.992;13.788;2022-12-24T11:43:24;10.90;99.90
24664;DHT22;12791;50.992;13.788;2022-12-24T11:46:15;10.90;99.90
24664;DHT22;12791;50.992;13.788;2022-12-24T11:48:44;10.80;99.90
24664;DHT22;12791;50.992;13.788;2022-12-24T11:51:25;10.80;99.90
24664;DHT22;12791;50.992;13.788;2022-12-24T11:53:59;10.80;99.90
24664;DHT22;12791;50.992;13.788;2022-12-24T11:56:35;10.80;99.90
24664;DHT22;12791;50.992;13.788;2022-12-24T11:59:14;10.80;99.90
24664;DHT22;12791;50.992;13.788;2022-12-24T12:01:53;10.80;99.90
24664;DHT22;12791;50.992;13.788;2022-12-24T12:04:26;10.80;99.90
24664;DHT22;12791;50.992;13.788;2022-12-24T12:06:58;10.90;99.90
24664;DHT22;12791;50.992;13.788;2022-12-24T12:09:28;10.90;99.90
24664;DHT22;12791;50.992;13.788;2022-12-24T12:12:00;10.90;99.90
24664;DHT22;12791;50.992;13.788;2022-12-24T12:14:32;10.90;99.90
24664;DHT22;12791;50.992;13.788;2022-12-24T12:17:05;10.80;99.90
24664;DHT22;12791;50.992;13.788;2022-12-24T12:19:42;11.00;99.90
24664;DHT22;12791;50.992;13.788;2022-12-24T12:22:20;11.00;99.90
24664;DHT22;12791;50.992;13.788;2022-12-24T12:24:50;11.00;99.90
24664;DHT22;12791;50.992;13.788;2022-12-24T12:27:22;11.00;99.90
24664;DHT22;12791;50.992;13.788;2022-12-24T12:29:54;11.00;99.90
24664;DHT22;12791;50.992;13.788;2022-12-24T12:32:32;11.00;99.90
24664;DHT22;12791;50.992;13.788;2022-12-24T12:35:09;11.00;99.90
24664;DHT22;12791;50.992;13.788;2022-12-24T12:37:43;11.00;99.90
24664;DHT22;12791;50.992;13.788;2022-12-24T12:40:14;11.00;99.90
24664;DHT22;12791;50.992;13.788;2022-12-24T12:42:49;11.10;99.90
24664;DHT22;12791;50.992;13.788;2022-12-24T12:45:43;11.20;99.90
24664;DHT22;12791;50.992;13.788;2022-12-24T12:48:35;11.10;99.90
24664;DHT22;12791;50.992;13.788;2022-12-24T12:51:11;11.10;99.90
24664;DHT22;12791;50.992;13.788;2022-12-24T12:53:58;11.00;99.90
24664;DHT22;12791;50.992;13.788;2022-12-24T12:56:32;11.10;99.90
24664;DHT22;12791;50.992;13.788;2022-12-24T12:59:02;11.00;99.90
24664;DHT22;12791;50.992;13.788;2022-12-24T13:01:41;11.10;99.90
24664;DHT22;12791;50.992;13.788;2022-12-24T13:04:36;11.10;99.90
24664;DHT22;12791;50.992;13.788;2022-12-24T13:07:28;11.10;99.90
24664;DHT22;12791;50.992;13.788;2022-12-24T13:10:35;11.10;99.90
24664;DHT22;12791;50.992;13.788;2022-12-24T13:19:16;11.00;99.90
24664;DHT22;12791;50.992;13.788;2022-12-24T13:21:48;11.20;99.90
24664;DHT22;12791;50.992;13.788;2022-12-24T13:24:21;11.20;99.90
24664;DHT22;12791;50.992;13.788;2022-12-24T13:27:01;11.30;99.90
24664;DHT22;12791;50.992;13.788;2022-12-24T13:29:39;11.30;99.90
24664;DHT22;12791;50.992;13.788;2022-12-24T13:35:36;11.40;99.90
24664;DHT22;12791;50.992;13.788;2022-12-24T13:38:38;11.40;99.90
24664;DHT22;12791;50.992;13.788;2022-12-24T13:41:48;11.40;99.90
24664;DHT22;12791;50.992;13.788;2022-12-24T13:44:23;11.30;99.90
24664;DHT22;12791;50.992;13.788;2022-12-24T13:47:02;11.60;99.90
24664;DHT22;12791;50.992;13.788;2022-12-24T13:49:36;11.40;99.90
24664;DHT22;12791;50.992;13.788;2022-12-24T13:52:16;11.40;99.90
24664;DHT22;12791;50.992;13.788;2022-12-24T13:54:48;11.40;99.90
24664;DHT22;12791;50.992;13.788;2022-12-24T13:57:29;11.40;99.90
24664;DHT22;12791;50.992;13.788;2022-12-24T14:00:00;11.40;99.90
24664;DHT22;12791;50.992;13.788;2022-12-24T14:02:32;11.40;99.90
24664;DHT22;12791;50.992;13.788;2022-12-24T14:05:03;11.40;99.90
24664;DHT22;12791;50.992;13.788;2022-12-24T14:07:33;11.30;99.90
24664;DHT22;12791;50.992;13.788;2022-12-24T14:10:02;11.30;99.90
24664;DHT22;12791;50.992;13.788;2022-12-24T14:12:53;11.30;99.90
24664;DHT22;12791;50.992;13.788;2022-12-24T14:15:54;11.30;99.90
24664;DHT22;12791;50.992;13.788;2022-12-24T14:18:25;11.30;99.90
24664;DHT22;12791;50.992;13.788;2022-12-24T14:20:54;11.30;99.90
24664;DHT22;12791;50.992;13.788;2022-12-24T14:23:30;11.30;99.90
24664;DHT22;12791;50.992;13.788;2022-12-24T14:26:00;11.20;99.90
24664;DHT22;12791;50.992;13.788;2022-12-24T14:28:34;11.20;99.90
24664;DHT22;12791;50.992;13.788;2022-12-24T14:31:03;11.20;99.90
24664;DHT22;12791;50.992;13.788;2022-12-24T14:33:31;11.20;99.90
24664;DHT22;12791;50.992;13.788;2022-12-24T14:36:00;11.30;99.90
24664;DHT22;12791;50.992;13.788;2022-12-24T14:38:27;11.30;99.90
24664;DHT22;12791;50.992;13.788;2022-12-24T14:41:02;11.10;99.90
24664;DHT22;12791;50.992;13.788;2022-12-24T14:43:49;11.10;99.90
24664;DHT22;12791;50.992;13.788;2022-12-24T14:46:22;11.10;99.90
24664;DHT22;12791;50.992;13.788;2022-12-24T14:48:53;11.00;99.90
24664;DHT22;12791;50.992;13.788;2022-12-24T14:51:26;11.00;99.90
24664;DHT22;12791;50.992;13.788;2022-12-24T14:54:12;11.00;99.90
24664;DHT22;12791;50.992;13.788;2022-12-24T14:56:42;11.00;99.90
24664;DHT22;12791;50.992;13.788;2022-12-24T14:59:19;11.00;99.90
24664;DHT22;12791;50.992;13.788;2022-12-24T15:01:46;11.00;99.90
24664;DHT22;12791;50.992;13.788;2022-12-24T15:04:15;10.90;99.90
24664;DHT22;12791;50.992;13.788;2022-12-24T15:06:45;10.90;99.90
24664;DHT22;12791;50.992;13.788;2022-12-24T15:09:18;10.90;99.90
24664;DHT22;12791;50.992;13.788;2022-12-24T15:11:48;10.90;99.90
24664;DHT22;12791;50.992;13.788;2022-12-24T15:14:16;10.90;99.90
24664;DHT22;12791;50.992;13.788;2022-12-24T15:17:02;10.90;99.90
24664;DHT22;12791;50.992;13.788;2022-12-24T15:19:33;10.80;99.90
24664;DHT22;12791;50.992;13.788;2022-12-24T15:22:02;10.80;99.90
24664;DHT22;12791;50.992;13.788;2022-12-24T15:24:31;10.80;99.90
24664;DHT22;12791;50.992;13.788;2022-12-24T15:27:00;10.80;99.90
24664;DHT22;12791;50.992;13.788;2022-12-24T15:29:29;11.00;99.90
24664;DHT22;12791;50.992;13.788;2022-12-24T15:32:00;10.70;99.90
24664;DHT22;12791;50.992;13.788;2022-12-24T15:34:34;10.70;99.90
24664;DHT22;12791;50.992;13.788;2022-12-24T15:37:05;10.70;99.90
24664;DHT22;12791;50.992;13.788;2022-12-24T15:39:37;10.60;99.90
24664;DHT22;12791;50.992;13.788;2022-12-24T15:42:05;10.70;99.90
24664;DHT22;12791;50.992;13.788;2022-12-24T15:44:48;10.70;99.90
24664;DHT22;12791;50.992;13.788;2022-12-24T15:47:21;10.70;99.90
24664;DHT22;12791;50.992;13.788;2022-12-24T15:49:54;10.70;99.90
24664;DHT22;12791;50.992;13.788;2022-12-24T15:52:23;10.70;99.90
24664;DHT22;12791;50.992;13.788;2022-12-24T15:54:50;10.70;99.90
24664;DHT22;12791;50.992;13.788;2022-12-24T15:57:23;10.70;99.90
24664;DHT22;12791;50.992;13.788;2022-12-24T15:59:52;10.60;99.90
24664;DHT22;12791;50.992;13.788;2022-12-24T16:02:39;10.60;99.90
24664;DHT22;12791;50.992;13.788;2022-12-24T16:05:34;10.60;99.90
24664;DHT22;12791;50.992;13.788;2022-12-24T16:08:18;10.60;99.90
24664;DHT22;12791;50.992;13.788;2022-12-24T16:10:49;10.60;99.90
24664;DHT22;12791;50.992;13.788;2022-12-24T16:13:20;10.60;99.90
24664;DHT22;12791;50.992;13.788;2022-12-24T16:15:51;10.60;99.90
24664;DHT22;12791;50.992;13.788;2022-12-24T16:18:23;10.70;99.90
24664;DHT22;12791;50.992;13.788;2022-12-24T16:20:53;10.60;99.90
24664;DHT22;12791;50.992;13.788;2022-12-24T16:23:22;10.60;99.90
24664;DHT22;12791;50.992;13.788;2022-12-24T16:25:51;10.60;99.90
24664;DHT22;12791;50.992;13.788;2022-12-24T16:28:18;10.60;99.90
24664;DHT22;12791;50.992;13.788;2022-12-24T16:30:59;10.60;99.90
24664;DHT22;12791;50.992;13.788;2022-12-24T16:33:29;10.60;99.90
24664;DHT22;12791;50.992;13.788;2022-12-24T16:35:56;10.60;99.90
24664;DHT22;12791;50.992;13.788;2022-12-24T16:38:23;10.50;99.90
24664;DHT22;12791;50.992;13.788;2022-12-24T16:40:51;10.50;99.90
24664;DHT22;12791;50.992;13.788;2022-12-24T16:43:18;10.50;99.90
24664;DHT22;12791;50.992;13.788;2022-12-24T16:46:04;10.70;99.90
24664;DHT22;12791;50.992;13.788;2022-12-24T16:48:35;10.40;99.90
24664;DHT22;12791;50.992;13.788;2022-12-24T16:51:03;10.30;99.90
24664;DHT22;12791;50.992;13.788;2022-12-24T16:53:31;10.30;99.90
24664;DHT22;12791;50.992;13.788;2022-12-24T16:55:58;10.30;99.90
24664;DHT22;12791;50.992;13.788;2022-12-24T16:58:25;10.20;99.90
24664;DHT22;12791;50.992;13.788;2022-12-24T17:00:54;10.20;99.90
24664;DHT22;12791;50.992;13.788;2022-12-24T17:03:21;10.20;99.90
24664;DHT22;12791;50.992;13.788;2022-12-24T17:05:49;10.10;99.90
24664;DHT22;12791;50.992;13.788;2022-12-24T17:08:16;10.00;99.90
24664;DHT22;12791;50.992;13.788;2022-12-24T17:10:50;10.00;99.90
24664;DHT22;12791;50.992;13.788;2022-12-24T17:13:17;9.90;99.90
24664;DHT22;12791;50.992;13.788;2022-12-24T17:15:44;9.80;99.90
24664;DHT22;12791;50.992;13.788;2022-12-24T17:18:11;9.80;99.90
24664;DHT22;12791;50.992;13.788;2022-12-24T17:20:39;9.70;99.90
24664;DHT22;12791;50.992;13.788;2022-12-24T17:23:07;9.60;99.90
24664;DHT22;12791;50.992;13.788;2022-12-24T17:25:34;9.60;99.90
24664;DHT22;12791;50.992;13.788;2022-12-24T17:28:02;9.60;99.90
24664;DHT22;12791;50.992;13.788;2022-12-24T17:30:29;9.50;99.90
24664;DHT22;12791;50.992;13.788;2022-12-24T17:32:56;9.40;99.90
24664;DHT22;12791;50.992;13.788;2022-12-24T17:35:24;9.50;99.90
24664;DHT22;12791;50.992;13.788;2022-12-24T17:37:51;9.40;99.90
24664;DHT22;12791;50.992;13.788;2022-12-24T17:40:19;9.30;99.90
24664;DHT22;12791;50.992;13.788;2022-12-24T17:42:50;9.30;99.90
24664;DHT22;12791;50.992;13.788;2022-12-24T17:45:24;9.20;99.90
24664;DHT22;12791;50.992;13.788;2022-12-24T17:47:51;9.10;99.90
24664;DHT22;12791;50.992;13.788;2022-12-24T17:50:24;9.00;99.90
24664;DHT22;12791;50.992;13.788;2022-12-24T17:52:51;8.90;99.90
24664;DHT22;12791;50.992;13.788;2022-12-24T17:55:19;8.90;99.90
24664;DHT22;12791;50.992;13.788;2022-12-24T17:58:07;8.70;99.90
24664;DHT22;12791;50.992;13.788;2022-12-24T18:00:43;8.70;99.90
24664;DHT22;12791;50.992;13.788;2022-12-24T18:03:16;8.60;99.90
24664;DHT22;12791;50.992;13.788;2022-12-24T18:06:02;8.50;99.90
24664;DHT22;12791;50.992;13.788;2022-12-24T18:08:44;8.40;99.90
24664;DHT22;12791;50.992;13.788;2022-12-24T18:11:17;8.30;99.90
24664;DHT22;12791;50.992;13.788;2022-12-24T18:13:46;8.30;99.90
24664;DHT22;12791;50.992;13.788;2022-12-24T18:16:15;8.30;99.90
24664;DHT22;12791;50.992;13.788;2022-12-24T18:18:58;8.20;99.90
24664;DHT22;12791;50.992;13.788;2022-12-24T18:21:35;8.20;99.90
24664;DHT22;12791;50.992;13.788;2022-12-24T18:24:07;8.10;99.90
24664;DHT22;12791;50.992;13.788;2022-12-24T18:26:42;8.10;99.90
24664;DHT22;12791;50.992;13.788;2022-12-24T18:29:15;7.90;99.90
24664;DHT22;12791;50.992;13.788;2022-12-24T18:31:56;7.90;99.90
24664;DHT22;12791;50.992;13.788;2022-12-24T18:34:24;7.90;99.90
24664;DHT22;12791;50.992;13.788;2022-12-24T18:36:53;7.90;99.90
24664;DHT22;12791;50.992;13.788;2022-12-24T18:39:20;7.90;99.90
24664;DHT22;12791;50.992;13.788;2022-12-24T18:41:54;7.80;99.90
24664;DHT22;12791;50.992;13.788;2022-12-24T18:44:22;7.80;99.90
24664;DHT22;12791;50.992;13.788;2022-12-24T18:46:49;7.80;99.90
24664;DHT22;12791;50.992;13.788;2022-12-24T18:49:16;7.70;99.90
24664;DHT22;12791;50.992;13.788;2022-12-24T18:51:43;7.70;99.90
24664;DHT22;12791;50.992;13.788;2022-12-24T18:54:11;7.70;99.90
24664;DHT22;12791;50.992;13.788;2022-12-24T18:56:43;7.70;99.90
24664;DHT22;12791;50.992;13.788;2022-12-24T18:59:12;7.70;99.90
24664;DHT22;12791;50.992;13.788;2022-12-24T19:01:39;7.60;99.90
24664;DHT22;12791;50.992;13.788;2022-12-24T19:04:06;7.60;99.90
24664;DHT22;12791;50.992;13.788;2022-12-24T19:06:35;7.60;99.90
24664;DHT22;12791;50.992;13.788;2022-12-24T19:09:03;7.60;99.90
24664;DHT22;12791;50.992;13.788;2022-12-24T19:11:36;7.60;99.90
24664;DHT22;12791;50.992;13.788;2022-12-24T19:14:06;7.60;99.90
24664;DHT22;12791;50.992;13.788;2022-12-24T19:16:37;7.60;99.90
24664;DHT22;12791;50.992;13.788;2022-12-24T19:19:10;7.50;99.90
24664;DHT22;12791;50.992;13.788;2022-12-24T19:21:42;7.50;99.90
24664;DHT22;12791;50.992;13.788;2022-12-24T19:24:09;7.50;99.90
24664;DHT22;12791;50.992;13.788;2022-12-24T19:26:39;7.60;99.90
24664;DHT22;12791;50.992;13.788;2022-12-24T19:29:06;7.70;99.90
24664;DHT22;12791;50.992;13.788;2022-12-24T19:31:33;7.80;99.90
24664;DHT22;12791;50.992;13.788;2022-12-24T19:34:09;7.80;99.90
24664;DHT22;12791;50.992;13.788;2022-12-24T19:36:37;8.10;99.90
24664;DHT22;12791;50.992;13.788;2022-12-24T19:39:07;8.00;99.90
24664;DHT22;12791;50.992;13.788;2022-12-24T19:41:34;8.00;99.90
24664;DHT22;12791;50.992;13.788;2022-12-24T19:44:01;8.10;99.90
24664;DHT22;12791;50.992;13.788;2022-12-24T19:46:32;8.20;99.90
24664;DHT22;12791;50.992;13.788;2022-12-24T19:49:14;8.30;99.90
24664;DHT22;12791;50.992;13.788;2022-12-24T19:51:41;8.40;99.90
24664;DHT22;12791;50.992;13.788;2022-12-24T19:54:24;8.40;99.90
24664;DHT22;12791;50.992;13.788;2022-12-24T19:56:57;8.10;99.90
24664;DHT22;12791;50.992;13.788;2022-12-24T19:59:27;8.50;99.90